ADDS METAR Data INFO
IDs: Format: Raw Decoded Include TAF

Data at: 1040 UTC 19 Oct 2017

KAPC 191010Z 26011KT 10SM FU OVC010 13/11 A3000 RMK AO2 T01280106
KAPC 190954Z 25009KT 10SM FU OVC009 13/11 A3000 RMK AO2 SLP151 T01280106
KAPC 190854Z 25009KT 10SM FU OVC008 12/11 A3000 RMK AO2 SLP149 T01220106 55004
KAPC 190754Z 26007KT 10SM FU OVC008 12/11 A2999 RMK AO2 SLP147 T01220106 402060028
KAPC 190654Z 26003KT 10SM FU OVC009 12/10 A3000 RMK AO2 SLP151 T01170100
KAPC 190641Z 26004KT 10SM FU OVC009 12/10 A3001 RMK AO2 T01170100
KAPC 190622Z 00000KT 10SM FU OVC010 11/09 A3001 RMK AO2 T01060094
KAPC 190607Z 00000KT 10SM FU BKN009 10/08 A3001 RMK AO2 CIG 008V011 T01000083
KAPC 190554Z 00000KT 10SM FU SCT009 09/08 A3001 RMK AO2 SLP153 T00940083 10172 20089 53009
KAPC 190454Z 25007KT 10SM FU CLR 11/09 A2999 RMK AO2 SLP148 T01060089
KAPC 190354Z 23008KT 10SM FU CLR 11/09 A2998 RMK AO2 SLP142 T01060089
KAPC 190254Z 21006KT 10SM FU CLR 11/09 A2998 RMK AO2 SLP143 T01110089 53001
KAPC 190154Z 24004KT 10SM FU CLR 13/08 A2998 RMK AO2 SLP142 T01280083
KAPC 190054Z 25003KT 10SM FU CLR 17/07 A2998 RMK AO2 SLP142 T01720072
KAPC 182354Z 21013KT 10SM FU CLR 19/11 A2998 RMK AO2 SLP142 T01890106 10206 20128 56014
KAPC 182254Z 20011KT 10SM FU CLR 19/10 A2998 RMK AO2 SLP142 T01940100
KAPC 182154Z 20005KT 10SM FU CLR 19/08 A2999 RMK AO2 SLP148 T01940083
KAPC 182054Z 19005KT 10SM FU CLR 19/09 A3002 RMK AO2 SLP156 T01890089 58022
KAPC 181954Z COR 20006KT 10SM FU CLR 16/09 A3005 RMK AO2 SLP167 T01610094
KAPC 181854Z 20006KT 10SM FU CLR 14/08 A3008 RMK AO2 SLP176 T01440078
KAPC 181754Z COR 20006KT 10SM FU CLR 13/07 A3008 RMK AO2 SLP178 T01280072 10128 20028 51008
KAPC 181657Z 25003KT 3SM BR FU SCT002 10/09 A3008 RMK AO2 T01000094
KAPC 181654Z COR 27003KT 3SM BR FU SCT002 10/10 A3008 RMK AO2 SLP176 T01000100
KAPC 181652Z 00000KT 3SM BR FU BKN002 11/10 A3008 RMK AO2
KAPC 181644Z 00000KT 1SM BR FU OVC002 10/10 A3008 RMK AO2 T01000100
KAPC 181554Z AUTO M1/4SM FG FU VV002 09/09 A3007 RMK AO2 SLP174 T00890089
KAPC 181454Z AUTO 00000KT 1/2SM FG FU VV001 06/06 A3006 RMK AO2 SLP169 T00610056 51007
KAPC 181449Z AUTO 00000KT 1 1/4SM BR FU OVC002 06/06 A3006 RMK AO2
KAPC 181444Z AUTO 00000KT 3SM BR FU OVC002 06/06 A3005 RMK AO2 T00560056
KAPC 181442Z AUTO 00000KT 1SM BR FU VV002 06/06 A3005 RMK AO2 T00610061
KAPC 181417Z AUTO 00000KT 1/2SM FG FU VV002 04/04 A3005 RMK AO2 VIS M1/4V5 T00390039
KAPC 181415Z AUTO 00000KT 1 1/2SM BR FU SCT002 04/03 A3005 RMK AO2 VIS 1/4V5 T00390033
KAPC 181354Z AUTO 00000KT 10SM FU CLR 04/03 A3005 RMK AO2 SLP166 T00440028
KAPC 181254Z AUTO 00000KT 6SM BR FU CLR 04/03 A3005 RMK AO2 SLP165 T00440033
KAPC 181231Z AUTO 00000KT 3SM BR FU CLR 04/04 A3004 RMK AO2 T00440039
KAPC 181224Z AUTO 03003KT 1 3/4SM BR FU CLR 04/04 A3004 RMK AO2 T00440039
KAPC 181154Z AUTO 00000KT 8SM FU CLR 04/04 A3004 RMK AO2 SLP162 T00440039 10111 20039 56008
KAPC 181054Z AUTO 00000KT 8SM FU CLR 05/04 A3004 RMK AO2 SLP163 T00500039
KAPC 180954Z AUTO 00000KT 10SM FU CLR 08/06 A3005 RMK AO2 SLP167 T00780061
KAPC 180854Z AUTO 13004KT 10SM FU CLR 07/06 A3006 RMK AO2 SLP169 T00670056 50001
KAPC 180754Z AUTO 00000KT 10SM FU CLR 09/07 A3006 RMK AO2 SLP171 T00890072 402720067
KAPC 180654Z AUTO 14005KT 10SM FU CLR 09/07 A3006 RMK AO2 SLP169 T00940067
KAPC 180554Z AUTO 16005KT 10SM FU CLR 09/07 A3006 RMK AO2 SLP169 T00890072 10250 20089 53003
KAPC 180454Z AUTO 18004KT 10SM FU CLR 13/09 A3005 RMK AO2 SLP168 T01280094
KAPC 180354Z AUTO 17006KT 10SM FU CLR 14/07 A3004 RMK AO2 SLP162 T01440072
KAPC 180254Z AUTO 16005KT 10SM FU CLR 14/09 A3005 RMK AO2 SLP165 T01440094 53007
KAPC 180154Z AUTO 20008KT 10SM FU CLR 16/11 A3004 RMK AO2 SLP162 T01610106
KAPC 180054Z 22008KT 10SM FU CLR 20/11 A3002 RMK AO2 SLP157 T02000111
KAPC 172354Z 20006KT 7SM FU CLR 25/05 A3002 RMK AO2 SLP158 T02500050 10272 20178 58011
KAPC 172254Z 20007KT 6SM HZ FU CLR 26/04 A3003 RMK AO2 SLP162 T02610044